Time;durP1;ratioP1;P1;durP2;ratioP2;P2;SDS_P1;SDS_P2;PMS_P1;PMS_P2;Temp;Humidity;BMP_temperature;BMP_pressure;BME280_temperature;BME280_humidity;BME280_pressure;Samples;Min_cycle;Max_cycle;Signal;HPM_P1;HPM_P2
2024/02/16 00:01:02;;;;;;;8.10;6.60;;;14.40;99.90;;;;;;5017314;28;20185;-68
2024/02/16 00:03:28;;;;;;;10.27;5.97;;;14.40;99.90;;;;;;5018208;28;20196;-68
2024/02/16 00:05:54;;;;;;;9.63;6.07;;;14.40;99.90;;;;;;5012759;28;20428;-68
2024/02/16 00:08:22;;;;;;;7.10;5.90;;;14.40;99.90;;;;;;5015961;28;20912;-68
2024/02/16 00:10:48;;;;;;;7.60;6.00;;;14.30;99.90;;;;;;5017802;28;20193;-69
2024/02/16 00:13:14;;;;;;;8.03;6.30;;;14.30;99.90;;;;;;5013254;28;20524;-68
2024/02/16 00:15:40;;;;;;;7.20;5.70;;;14.30;99.90;;;;;;5017434;28;20296;-69
2024/02/16 00:18:06;;;;;;;9.77;5.50;;;14.30;99.90;;;;;;5016411;28;20474;-69
2024/02/16 00:20:32;;;;;;;9.67;6.40;;;14.40;99.90;;;;;;5020507;28;20515;-69
2024/02/16 00:22:58;;;;;;;6.87;5.33;;;14.30;99.90;;;;;;5018319;28;20530;-69
2024/02/16 00:25:24;;;;;;;7.97;6.20;;;14.30;99.90;;;;;;5013998;28;20219;-69
2024/02/16 00:27:52;;;;;;;8.93;5.80;;;14.30;99.90;;;;;;5013118;28;20424;-69
2024/02/16 00:30:19;;;;;;;8.97;5.70;;;14.30;99.90;;;;;;5008697;28;20199;-69
2024/02/16 00:32:45;;;;;;;8.67;5.70;;;14.30;99.90;;;;;;5015807;28;20592;-69
2024/02/16 00:35:11;;;;;;;6.83;5.80;;;14.30;99.90;;;;;;5010063;28;20450;-69
2024/02/16 00:37:37;;;;;;;9.40;6.03;;;14.30;99.90;;;;;;5019924;28;20426;-69
2024/02/16 00:40:04;;;;;;;8.80;5.23;;;14.30;99.90;;;;;;5015005;28;20902;-69
2024/02/16 00:42:31;;;;;;;9.63;5.90;;;14.30;99.90;;;;;;5010840;28;20456;-68
2024/02/16 00:44:57;;;;;;;9.27;5.50;;;14.30;99.90;;;;;;5011519;28;21085;-69
2024/02/16 00:47:23;;;;;;;9.70;5.40;;;14.30;99.90;;;;;;5014875;28;20432;-69
2024/02/16 00:49:49;;;;;;;10.90;5.87;;;14.30;99.90;;;;;;5015474;28;20435;-69
2024/02/16 00:52:14;;;;;;;9.27;5.50;;;14.30;99.90;;;;;;5013423;28;21185;-69
2024/02/16 00:54:40;;;;;;;7.80;5.90;;;14.30;99.90;;;;;;5015855;28;20581;-69
2024/02/16 00:57:06;;;;;;;6.40;4.70;;;14.30;99.90;;;;;;5009351;28;20221;-69
2024/02/16 00:59:31;;;;;;;6.43;4.73;;;14.30;99.90;;;;;;5012326;28;20627;-69
2024/02/16 01:01:57;;;;;;;6.40;5.10;;;14.30;99.90;;;;;;5017678;28;20688;-69
2024/02/16 01:04:23;;;;;;;10.20;5.20;;;14.30;99.90;;;;;;5013228;28;20244;-69
2024/02/16 01:06:49;;;;;;;6.67;5.03;;;14.30;99.90;;;;;;5018885;28;20272;-69
2024/02/16 01:09:15;;;;;;;9.70;5.13;;;14.30;99.90;;;;;;5017927;28;20185;-69
2024/02/16 01:11:42;;;;;;;12.70;5.00;;;14.40;99.90;;;;;;5016703;28;21088;-69
2024/02/16 01:14:07;;;;;;;7.80;5.13;;;14.30;99.90;;;;;;5012379;28;20471;-69
2024/02/16 01:16:33;;;;;;;10.07;5.20;;;14.30;99.90;;;;;;5012988;28;20448;-69
2024/02/16 01:18:59;;;;;;;8.87;5.20;;;14.30;99.90;;;;;;5016237;28;20556;-69
2024/02/16 01:21:24;;;;;;;9.10;5.60;;;14.30;99.90;;;;;;5012928;28;20208;-69
2024/02/16 01:23:50;;;;;;;8.90;5.20;;;14.40;99.90;;;;;;5014742;28;20201;-69
2024/02/16 01:26:15;;;;;;;10.83;5.40;;;14.30;99.90;;;;;;5014138;28;20185;-69
2024/02/16 01:28:41;;;;;;;6.47;5.43;;;14.40;99.90;;;;;;5018794;28;20299;-69
2024/02/16 01:31:09;;;;;;;11.47;5.67;;;14.30;99.90;;;;;;5014677;28;20251;-69
2024/02/16 01:33:35;;;;;;;7.20;5.20;;;14.30;99.90;;;;;;5009393;28;20208;-69
2024/02/16 01:36:02;;;;;;;7.93;5.47;;;14.30;99.90;;;;;;5014032;28;20423;-70
2024/02/16 01:38:27;;;;;;;6.60;4.90;;;14.30;99.90;;;;;;5014775;28;20415;-69
2024/02/16 01:40:53;;;;;;;6.10;5.33;;;14.40;99.90;;;;;;5013122;28;20490;-69
2024/02/16 01:43:20;;;;;;;7.83;5.30;;;14.30;99.90;;;;;;5014396;28;20185;-69
2024/02/16 01:45:45;;;;;;;6.70;5.03;;;14.30;99.90;;;;;;5016024;28;20697;-69
2024/02/16 01:48:12;;;;;;;7.80;5.47;;;14.30;99.90;;;;;;5014485;28;20428;-70
2024/02/16 01:50:38;;;;;;;7.63;5.53;;;14.30;99.90;;;;;;5013927;28;20272;-69
2024/02/16 01:53:04;;;;;;;7.97;5.77;;;14.20;99.90;;;;;;5015143;28;20566;-69
2024/02/16 01:55:29;;;;;;;9.80;5.80;;;14.30;99.90;;;;;;5012425;28;20928;-69
2024/02/16 01:57:57;;;;;;;8.40;5.80;;;14.30;99.90;;;;;;5013325;28;20187;-70
2024/02/16 02:00:22;;;;;;;8.10;5.30;;;14.20;99.90;;;;;;5012865;28;20301;-69
2024/02/16 02:02:48;;;;;;;10.67;6.40;;;14.20;99.90;;;;;;5007138;28;21110;-69
2024/02/16 02:05:14;;;;;;;8.20;5.87;;;14.10;99.90;;;;;;5014120;28;20193;-70
2024/02/16 02:07:41;;;;;;;11.40;6.50;;;14.20;99.90;;;;;;5015403;28;20678;-70
2024/02/16 02:10:07;;;;;;;8.30;6.20;;;14.10;99.90;;;;;;5012786;28;20420;-70
2024/02/16 02:12:33;;;;;;;9.13;5.87;;;14.10;99.90;;;;;;5013321;28;20539;-68
2024/02/16 02:14:59;;;;;;;6.23;5.47;;;14.10;99.90;;;;;;5014720;28;20606;-70
2024/02/16 02:17:24;;;;;;;7.90;5.80;;;14.10;99.90;;;;;;5012786;28;20445;-70
2024/02/16 02:19:50;;;;;;;7.67;5.90;;;14.00;99.90;;;;;;5018815;28;20188;-70
2024/02/16 02:22:17;;;;;;;6.73;5.53;;;14.00;99.90;;;;;;5006647;28;20200;-68
2024/02/16 02:24:44;;;;;;;6.63;5.20;;;13.90;99.90;;;;;;5013828;28;20205;-68
2024/02/16 02:27:10;;;;;;;8.87;6.00;;;13.90;99.90;;;;;;5011157;28;20426;-69
2024/02/16 02:29:35;;;;;;;8.30;5.20;;;13.90;99.90;;;;;;5009972;28;21130;-69
2024/02/16 02:32:01;;;;;;;8.57;5.27;;;13.90;99.90;;;;;;5015643;28;20427;-69
2024/02/16 02:34:27;;;;;;;7.73;5.83;;;13.90;99.90;;;;;;5015210;28;20680;-69
2024/02/16 02:36:53;;;;;;;6.47;5.10;;;13.90;99.90;;;;;;5011566;28;20227;-68
2024/02/16 02:39:18;;;;;;;8.97;5.13;;;13.80;99.90;;;;;;5013301;28;20205;-69
2024/02/16 02:41:44;;;;;;;9.37;5.50;;;13.90;99.90;;;;;;5011608;28;20490;-69
2024/02/16 02:44:11;;;;;;;9.20;5.90;;;13.80;99.90;;;;;;5008954;28;20212;-69
2024/02/16 02:46:37;;;;;;;7.70;5.47;;;13.80;99.90;;;;;;5011180;28;20182;-69
2024/02/16 02:49:03;;;;;;;7.20;4.90;;;13.90;99.90;;;;;;5016572;28;20578;-69
2024/02/16 02:51:29;;;;;;;8.47;5.60;;;13.80;99.90;;;;;;5017903;28;20410;-69
2024/02/16 02:53:54;;;;;;;9.20;5.00;;;13.80;99.90;;;;;;5024310;28;20479;-69
2024/02/16 02:56:20;;;;;;;9.53;5.37;;;13.80;99.90;;;;;;5010090;28;20187;-69
2024/02/16 02:58:45;;;;;;;7.27;4.97;;;13.80;99.90;;;;;;5024633;28;20710;-69
2024/02/16 03:01:12;;;;;;;12.57;6.30;;;13.80;99.90;;;;;;5016149;28;20181;-69
2024/02/16 03:03:38;;;;;;;6.90;4.50;;;13.80;99.90;;;;;;5018636;28;20205;-68
2024/02/16 03:06:06;;;;;;;6.37;4.10;;;13.80;99.90;;;;;;5015626;28;20898;-68
2024/02/16 03:08:31;;;;;;;8.17;4.60;;;13.80;99.90;;;;;;5020406;28;20980;-68
2024/02/16 03:11:00;;;;;;;7.03;4.90;;;13.70;99.90;;;;;;5016495;28;20475;-68
2024/02/16 03:13:25;;;;;;;6.73;4.80;;;13.70;99.90;;;;;;5014591;28;20193;-68
2024/02/16 03:15:52;;;;;;;8.97;4.50;;;13.80;99.90;;;;;;5019517;28;20489;-69
2024/02/16 03:18:19;;;;;;;6.20;4.90;;;13.80;99.90;;;;;;5010525;28;20174;-69
2024/02/16 03:20:47;;;;;;;9.80;4.57;;;13.80;99.90;;;;;;5016008;28;20413;-68
2024/02/16 03:23:13;;;;;;;7.53;4.60;;;13.70;99.90;;;;;;5023970;28;20465;-68
2024/02/16 03:25:40;;;;;;;7.23;4.97;;;13.70;99.90;;;;;;5018416;28;20464;-69
2024/02/16 03:28:10;;;;;;;6.40;4.70;;;13.70;99.90;;;;;;5012424;28;20890;-68
2024/02/16 03:30:35;;;;;;;7.80;4.93;;;13.70;99.90;;;;;;5014692;28;20192;-69
2024/02/16 03:33:01;;;;;;;7.70;5.47;;;13.70;99.90;;;;;;5016685;28;20467;-69
2024/02/16 03:35:27;;;;;;;6.30;4.63;;;13.70;99.90;;;;;;5014848;28;20205;-68
2024/02/16 03:37:53;;;;;;;8.47;4.40;;;13.60;99.90;;;;;;5018480;28;20185;-68
2024/02/16 03:40:18;;;;;;;6.57;4.80;;;13.60;99.90;;;;;;5010189;28;20438;-69
2024/02/16 03:42:44;;;;;;;7.27;4.40;;;13.60;99.90;;;;;;5017165;28;20182;-69
2024/02/16 03:45:10;;;;;;;6.40;4.93;;;13.60;99.90;;;;;;5016476;28;20287;-69
2024/02/16 03:47:35;;;;;;;7.13;4.87;;;13.60;99.90;;;;;;5015601;28;20246;-69
2024/02/16 03:50:02;;;;;;;8.00;5.00;;;13.60;99.90;;;;;;5015488;28;20423;-68
2024/02/16 03:52:28;;;;;;;8.37;5.10;;;13.60;99.90;;;;;;5014941;28;20671;-68
2024/02/16 03:54:54;;;;;;;7.63;4.80;;;13.50;99.90;;;;;;5010954;28;20440;-69
2024/02/16 03:57:19;;;;;;;10.47;4.23;;;13.60;99.90;;;;;;5017792;28;20432;-69
2024/02/16 03:59:45;;;;;;;6.70;4.47;;;13.50;99.90;;;;;;5015621;28;20219;-69
2024/02/16 04:02:13;;;;;;;7.77;5.20;;;13.50;99.90;;;;;;5013820;28;20189;-69
2024/02/16 04:04:39;;;;;;;8.50;5.30;;;13.50;99.90;;;;;;5013448;28;20480;-69
2024/02/16 04:07:06;;;;;;;7.23;4.60;;;13.50;99.90;;;;;;5015848;28;20825;-69
2024/02/16 04:09:35;;;;;;;6.90;4.60;;;13.50;99.90;;;;;;5018958;28;20454;-69
2024/02/16 04:12:01;;;;;;;8.07;5.67;;;13.50;99.90;;;;;;5015441;28;20440;-69
2024/02/16 04:14:27;;;;;;;10.20;5.13;;;13.50;99.90;;;;;;5014943;28;21031;-69
2024/02/16 04:16:53;;;;;;;8.40;5.00;;;13.50;99.90;;;;;;5020434;28;20431;-69
2024/02/16 04:19:18;;;;;;;6.07;4.83;;;13.50;99.90;;;;;;5016600;28;20207;-69
2024/02/16 04:21:44;;;;;;;6.67;4.10;;;13.50;99.90;;;;;;5015372;28;20184;-69
2024/02/16 04:24:10;;;;;;;8.17;4.43;;;13.40;99.90;;;;;;5015843;28;20201;-69
2024/02/16 04:26:35;;;;;;;6.77;4.47;;;13.50;99.90;;;;;;5013366;28;20193;-69
2024/02/16 04:29:02;;;;;;;7.83;4.40;;;13.40;99.90;;;;;;5016237;28;20193;-69
2024/02/16 04:31:27;;;;;;;7.00;4.87;;;13.40;99.90;;;;;;5015128;28;20181;-69
2024/02/16 04:33:53;;;;;;;6.73;4.43;;;13.40;99.90;;;;;;5017535;28;21039;-69
2024/02/16 04:36:18;;;;;;;8.63;4.70;;;13.40;99.90;;;;;;5019677;28;20640;-69
2024/02/16 04:38:44;;;;;;;8.40;4.70;;;13.40;99.90;;;;;;5014500;28;20189;-70
2024/02/16 04:41:10;;;;;;;7.70;4.63;;;13.30;99.90;;;;;;5016806;28;20197;-68
2024/02/16 04:43:36;;;;;;;9.20;4.73;;;13.30;99.90;;;;;;5014332;28;20210;-69
2024/02/16 04:46:02;;;;;;;6.13;4.80;;;13.30;99.90;;;;;;5011590;28;20702;-69
2024/02/16 04:48:28;;;;;;;9.00;5.13;;;13.30;99.90;;;;;;5014215;28;21410;-68
2024/02/16 04:50:54;;;;;;;8.77;5.60;;;13.20;99.90;;;;;;5017509;28;20646;-68
2024/02/16 04:53:20;;;;;;;8.93;5.07;;;13.20;99.90;;;;;;5013533;28;20463;-68
2024/02/16 04:55:45;;;;;;;7.63;4.70;;;13.20;99.90;;;;;;5011082;28;20182;-68
2024/02/16 04:58:11;;;;;;;10.93;6.30;;;13.20;99.90;;;;;;5017078;28;20677;-68
2024/02/16 05:00:37;;;;;;;10.70;5.60;;;13.20;99.90;;;;;;5017569;28;20181;-68
2024/02/16 05:03:03;;;;;;;6.70;5.33;;;13.20;99.90;;;;;;5014313;28;20264;-69
2024/02/16 05:05:30;;;;;;;12.57;6.60;;;13.10;99.90;;;;;;5009776;28;20546;-70
2024/02/16 05:07:56;;;;;;;10.70;6.03;;;13.20;99.90;;;;;;5010864;28;20181;-69
2024/02/16 05:10:21;;;;;;;6.53;5.73;;;13.10;99.90;;;;;;5015559;28;20439;-69
2024/02/16 05:12:47;;;;;;;13.03;5.70;;;13.00;99.90;;;;;;5015505;28;20221;-69
2024/02/16 05:15:13;;;;;;;11.30;5.80;;;13.00;99.90;;;;;;5017380;28;20213;-69
2024/02/16 05:17:39;;;;;;;8.53;5.57;;;13.00;99.90;;;;;;5017544;28;20230;-69
2024/02/16 05:20:14;;;;;;;8.27;5.07;;;13.00;99.90;;;;;;5015209;28;20269;-69
2024/02/16 05:22:39;;;;;;;7.43;5.40;;;13.00;99.90;;;;;;5012743;28;20411;-70
2024/02/16 05:25:05;;;;;;;9.60;4.83;;;13.00;99.90;;;;;;5012395;28;20506;-70
2024/02/16 05:27:31;;;;;;;7.07;4.70;;;13.00;99.90;;;;;;5015036;28;20188;-70
2024/02/16 05:29:56;;;;;;;8.00;5.73;;;13.00;99.90;;;;;;5014931;28;20189;-70
2024/02/16 05:32:22;;;;;;;8.70;5.50;;;13.00;99.90;;;;;;5017675;28;20671;-70
2024/02/16 05:34:47;;;;;;;7.40;4.63;;;13.00;99.90;;;;;;5012695;28;20232;-70
2024/02/16 05:37:15;;;;;;;5.60;4.53;;;13.00;99.90;;;;;;5015873;28;20184;-70
2024/02/16 05:39:53;;;;;;;6.93;4.70;;;13.00;99.90;;;;;;5013853;28;20181;-70
2024/02/16 05:42:22;;;;;;;7.87;4.80;;;13.00;99.90;;;;;;5010984;28;20426;-70
2024/02/16 05:44:47;;;;;;;8.60;5.10;;;13.00;99.90;;;;;;5012428;28;20471;-70
2024/02/16 05:47:13;;;;;;;7.40;4.93;;;13.00;99.90;;;;;;5015550;28;20443;-70
2024/02/16 05:49:39;;;;;;;10.63;5.17;;;13.00;99.90;;;;;;5012846;28;20583;-70
2024/02/16 05:52:17;;;;;;;8.03;4.87;;;13.00;99.90;;;;;;5019057;28;20432;-69
2024/02/16 05:54:44;;;;;;;9.70;5.10;;;13.00;99.90;;;;;;5013667;28;20204;-70
2024/02/16 05:57:10;;;;;;;10.77;5.90;;;13.00;99.90;;;;;;5008759;28;20411;-70
2024/02/16 05:59:35;;;;;;;10.03;6.80;;;13.00;99.90;;;;;;5013877;28;20434;-70
2024/02/16 06:02:01;;;;;;;9.60;6.00;;;13.00;99.90;;;;;;5012157;28;20590;-70
2024/02/16 06:04:26;;;;;;;8.97;5.70;;;13.00;99.90;;;;;;5015234;28;20217;-70
2024/02/16 06:06:53;;;;;;;7.73;6.13;;;12.90;99.90;;;;;;5013747;28;20184;-70
2024/02/16 06:09:19;;;;;;;10.90;5.77;;;12.90;99.90;;;;;;5009699;28;20177;-70
2024/02/16 06:11:44;;;;;;;7.20;5.40;;;12.90;99.90;;;;;;5010863;28;20807;-70
2024/02/16 06:14:10;;;;;;;14.43;5.27;;;12.90;99.90;;;;;;5012237;28;20291;-70
2024/02/16 06:16:36;;;;;;;16.37;5.10;;;12.90;99.90;;;;;;5012983;28;20642;-70
2024/02/16 06:19:01;;;;;;;6.43;4.43;;;12.90;99.90;;;;;;5013952;28;20238;-70
2024/02/16 06:21:27;;;;;;;7.70;5.33;;;12.90;99.90;;;;;;5013586;28;20192;-70
2024/02/16 06:23:52;;;;;;;6.10;4.90;;;12.80;99.90;;;;;;5020223;28;20579;-70
2024/02/16 06:26:18;;;;;;;7.50;5.40;;;12.90;99.90;;;;;;5014718;28;20189;-70
2024/02/16 06:28:43;;;;;;;11.50;5.93;;;12.80;99.90;;;;;;5014386;28;20235;-70
2024/02/16 06:31:10;;;;;;;8.37;5.53;;;12.80;99.90;;;;;;5016916;28;20210;-70
2024/02/16 06:33:36;;;;;;;10.70;5.90;;;12.80;99.90;;;;;;5011023;28;20295;-70
2024/02/16 06:36:02;;;;;;;9.13;5.63;;;12.80;99.90;;;;;;5017389;28;20868;-69
2024/02/16 06:38:27;;;;;;;8.77;5.07;;;12.80;99.90;;;;;;5016791;28;20193;-69
2024/02/16 06:40:53;;;;;;;6.70;5.27;;;12.70;99.90;;;;;;5013144;28;20907;-69
2024/02/16 06:43:18;;;;;;;8.00;4.73;;;12.70;99.90;;;;;;5014030;28;20263;-69
2024/02/16 06:45:44;;;;;;;11.43;5.00;;;12.70;99.90;;;;;;5015658;28;20239;-70
2024/02/16 06:48:09;;;;;;;10.27;5.10;;;12.70;99.90;;;;;;5011289;28;20192;-70
2024/02/16 06:50:35;;;;;;;5.83;4.03;;;12.70;99.90;;;;;;5014418;28;20187;-70
2024/02/16 06:53:00;;;;;;;6.90;4.60;;;12.80;99.90;;;;;;5016078;28;20223;-70
2024/02/16 06:55:26;;;;;;;7.60;4.67;;;12.80;99.90;;;;;;5018633;28;20262;-70
2024/02/16 06:57:52;;;;;;;8.87;5.90;;;12.80;99.90;;;;;;5011814;28;20478;-70
2024/02/16 07:00:19;;;;;;;7.20;5.17;;;12.80;99.90;;;;;;5012057;28;20651;-70
2024/02/16 07:02:45;;;;;;;10.43;4.80;;;12.80;99.90;;;;;;5015149;28;20191;-71
2024/02/16 07:05:12;;;;;;;8.63;4.70;;;12.80;99.90;;;;;;5019660;28;20902;-70
2024/02/16 07:07:38;;;;;;;10.33;5.30;;;12.90;99.90;;;;;;5012090;28;20229;-70
2024/02/16 07:10:05;;;;;;;8.37;6.20;;;12.90;99.90;;;;;;5014480;28;20440;-70
2024/02/16 07:12:32;;;;;;;9.20;5.93;;;12.90;99.90;;;;;;5013952;28;20529;-70
2024/02/16 07:14:58;;;;;;;8.10;5.30;;;12.90;99.90;;;;;;5012791;28;20454;-69
2024/02/16 07:17:24;;;;;;;8.43;4.80;;;12.90;99.90;;;;;;5016923;28;20916;-70
2024/02/16 07:19:49;;;;;;;7.23;5.67;;;12.90;99.90;;;;;;5013565;28;20190;-70
2024/02/16 07:22:15;;;;;;;6.57;5.23;;;13.00;99.90;;;;;;5014464;28;20188;-70
2024/02/16 07:24:41;;;;;;;5.83;5.17;;;13.00;99.90;;;;;;5015056;28;20211;-70
2024/02/16 07:27:06;;;;;;;7.63;4.80;;;13.10;99.90;;;;;;5014500;28;20478;-70
2024/02/16 07:29:32;;;;;;;9.57;4.90;;;13.10;99.90;;;;;;5017408;28;20185;-70
2024/02/16 07:31:57;;;;;;;9.30;5.40;;;13.20;99.90;;;;;;5012570;28;20330;-70
2024/02/16 07:34:23;;;;;;;7.23;4.97;;;13.20;99.90;;;;;;5027825;28;20220;-70
2024/02/16 07:36:49;;;;;;;8.40;5.40;;;13.30;99.90;;;;;;5016682;28;20283;-70
2024/02/16 07:39:15;;;;;;;7.47;5.10;;;13.40;99.90;;;;;;5017957;28;20176;-70
2024/02/16 07:41:40;;;;;;;5.87;5.27;;;13.40;99.90;;;;;;5015476;28;20287;-71
2024/02/16 07:44:06;;;;;;;7.20;5.47;;;13.40;99.90;;;;;;5015631;28;20469;-70
2024/02/16 07:46:31;;;;;;;6.70;5.27;;;13.40;99.90;;;;;;5007474;28;20308;-70
2024/02/16 07:48:57;;;;;;;9.87;5.67;;;13.50;99.90;;;;;;5018496;28;20275;-70
2024/02/16 07:51:24;;;;;;;10.63;6.10;;;13.50;99.90;;;;;;5024880;28;20176;-70
2024/02/16 07:53:49;;;;;;;9.13;5.40;;;13.50;99.90;;;;;;5020796;28;20253;-70
2024/02/16 07:56:15;;;;;;;7.53;5.70;;;13.60;99.90;;;;;;5017675;28;20497;-70
2024/02/16 07:58:44;;;;;;;7.80;5.50;;;13.60;99.90;;;;;;5024848;28;20176;-70
2024/02/16 08:01:13;;;;;;;8.97;6.10;;;13.70;99.90;;;;;;5023417;28;20184;-70
2024/02/16 08:03:40;;;;;;;7.93;6.10;;;13.70;99.90;;;;;;5022097;28;20483;-70
2024/02/16 08:06:06;;;;;;;7.60;5.40;;;13.80;99.90;;;;;;5018745;28;20420;-70
2024/02/16 08:08:31;;;;;;;9.73;6.67;;;13.80;99.90;;;;;;5016110;28;20442;-70
2024/02/16 08:10:57;;;;;;;10.00;5.83;;;13.90;99.90;;;;;;5019037;28;20192;-70
2024/02/16 08:13:23;;;;;;;9.60;6.43;;;13.90;99.90;;;;;;5021255;28;20247;-69
2024/02/16 08:15:48;;;;;;;10.57;5.47;;;13.90;99.90;;;;;;5023607;28;20204;-70
2024/02/16 08:18:14;;;;;;;6.70;5.70;;;13.90;99.90;;;;;;5025633;28;20193;-70
2024/02/16 08:20:39;;;;;;;6.30;5.63;;;13.90;99.90;;;;;;5026020;28;20370;-70
2024/02/16 08:23:05;;;;;;;8.47;5.53;;;13.90;99.90;;;;;;5022834;28;20220;-70
2024/02/16 08:25:33;;;;;;;12.53;7.23;;;13.80;99.90;;;;;;5026116;28;20235;-69
2024/02/16 08:27:58;;;;;;;6.40;5.50;;;13.80;99.90;;;;;;5027567;28;20328;-70
2024/02/16 08:30:25;;;;;;;9.00;6.23;;;13.90;99.90;;;;;;5022699;28;20440;-70
2024/02/16 08:32:51;;;;;;;9.00;6.00;;;13.90;99.90;;;;;;5012231;28;20216;-70
2024/02/16 08:35:17;;;;;;;8.13;6.47;;;14.00;99.90;;;;;;5014863;28;20878;-70
2024/02/16 08:37:43;;;;;;;8.83;5.33;;;13.90;99.90;;;;;;5026935;28;20184;-69
2024/02/16 08:40:14;;;;;;;10.27;5.90;;;14.00;99.90;;;;;;5024078;28;20450;-70
2024/02/16 08:42:42;;;;;;;6.13;5.50;;;14.00;99.90;;;;;;5025960;28;20192;-69
2024/02/16 08:45:08;;;;;;;10.27;6.60;;;14.10;99.90;;;;;;5028012;28;20450;-69
2024/02/16 08:47:34;;;;;;;7.80;5.77;;;14.20;99.90;;;;;;5022487;28;20477;-69
2024/02/16 08:50:00;;;;;;;10.50;5.67;;;14.20;99.90;;;;;;5021635;28;20535;-70
2024/02/16 08:52:26;;;;;;;6.70;5.63;;;14.20;99.90;;;;;;5015388;28;20223;-70
2024/02/16 08:54:52;;;;;;;8.90;6.50;;;14.30;99.90;;;;;;5019946;28;20193;-69
2024/02/16 08:57:17;;;;;;;10.83;7.50;;;14.30;99.90;;;;;;5021577;28;20963;-70
2024/02/16 08:59:44;;;;;;;8.47;6.37;;;14.30;99.90;;;;;;5017232;28;20193;-69
2024/02/16 09:02:09;;;;;;;13.90;7.53;;;14.30;99.90;;;;;;5013568;28;20180;-68
2024/02/16 09:04:36;;;;;;;9.10;7.43;;;14.40;99.90;;;;;;5013485;28;20444;-68
2024/02/16 09:07:02;;;;;;;9.00;7.20;;;14.40;99.90;;;;;;5010197;28;20259;-68
2024/02/16 09:09:28;;;;;;;13.07;7.83;;;14.40;99.90;;;;;;5009067;28;20423;-68
2024/02/16 09:11:54;;;;;;;10.97;7.67;;;14.40;99.90;;;;;;5016628;28;20483;-69
2024/02/16 09:14:19;;;;;;;17.37;10.90;;;14.50;99.90;;;;;;5014115;28;20471;-69
2024/02/16 09:16:48;;;;;;;14.23;7.73;;;14.50;99.90;;;;;;5014386;28;20289;-69
2024/02/16 09:19:13;;;;;;;13.60;7.87;;;14.50;99.90;;;;;;5006273;28;20569;-70
2024/02/16 09:21:39;;;;;;;9.27;6.67;;;14.50;99.90;;;;;;5012495;28;20442;-70
2024/02/16 09:24:10;;;;;;;9.30;6.10;;;14.60;99.90;;;;;;5011348;28;20232;-68
2024/02/16 09:26:36;;;;;;;14.50;6.50;;;14.60;99.90;;;;;;5014140;28;20643;-70
2024/02/16 09:29:02;;;;;;;8.90;6.80;;;14.60;99.90;;;;;;5009639;28;20444;-69
2024/02/16 09:31:28;;;;;;;9.00;6.30;;;14.70;99.90;;;;;;5013605;28;20442;-70
2024/02/16 09:33:53;;;;;;;8.17;5.93;;;14.80;99.90;;;;;;5012126;28;20885;-68
2024/02/16 09:36:19;;;;;;;10.23;6.60;;;14.80;99.90;;;;;;5010494;28;20190;-69
2024/02/16 09:38:45;;;;;;;9.03;5.70;;;14.80;99.90;;;;;;5013258;28;20618;-69
2024/02/16 09:41:11;;;;;;;9.07;6.30;;;14.70;99.90;;;;;;5009849;28;20428;-69
2024/02/16 09:43:39;;;;;;;6.90;5.90;;;14.80;99.90;;;;;;5011410;28;20701;-70
2024/02/16 09:46:05;;;;;;;10.43;6.07;;;14.90;99.90;;;;;;5014483;28;20419;-70
2024/02/16 09:48:31;;;;;;;9.20;6.30;;;14.80;99.90;;;;;;5013823;28;20481;-69
2024/02/16 09:50:59;;;;;;;9.20;6.17;;;14.80;99.90;;;;;;5008118;28;20420;-70
2024/02/16 09:53:26;;;;;;;8.63;5.63;;;14.90;99.90;;;;;;5009529;28;20825;-69
2024/02/16 09:55:52;;;;;;;6.47;5.33;;;14.90;99.90;;;;;;5007265;28;20454;-69
2024/02/16 09:58:18;;;;;;;8.43;5.83;;;15.00;99.90;;;;;;5015001;28;20430;-69
2024/02/16 10:00:52;;;;;;;11.10;5.70;;;15.00;99.90;;;;;;5018615;28;20513;-68
2024/02/16 10:03:29;;;;;;;7.07;5.40;;;15.00;99.90;;;;;;5009695;28;20865;-70
2024/02/16 10:06:09;;;;;;;10.43;5.77;;;15.10;99.90;;;;;;5012738;28;20442;-68
2024/02/16 10:08:46;;;;;;;6.70;5.03;;;15.10;99.90;;;;;;5014627;28;20418;-70
2024/02/16 10:11:14;;;;;;;12.73;5.37;;;15.10;99.90;;;;;;5014232;28;20466;-68
2024/02/16 10:13:40;;;;;;;8.20;5.73;;;15.20;99.90;;;;;;5012548;28;20486;-68
2024/02/16 10:16:11;;;;;;;7.37;5.00;;;15.30;99.90;;;;;;5013782;28;20432;-69
2024/02/16 10:18:37;;;;;;;12.73;6.83;;;15.30;99.90;;;;;;5012142;28;20288;-70
2024/02/16 10:21:03;;;;;;;7.80;5.70;;;15.30;99.90;;;;;;5009772;28;20425;-71
2024/02/16 10:23:29;;;;;;;7.40;5.67;;;15.30;99.90;;;;;;5011838;28;21071;-72
2024/02/16 10:25:54;;;;;;;5.83;4.53;;;15.40;99.90;;;;;;5018458;28;20180;-70
2024/02/16 10:28:27;;;;;;;5.73;5.10;;;15.50;99.90;;;;;;5012529;28;20264;-71
2024/02/16 10:31:02;;;;;;;8.83;5.67;;;15.60;99.90;;;;;;5010964;28;20328;-71
2024/02/16 10:33:32;;;;;;;9.07;4.97;;;15.60;99.90;;;;;;5009341;28;20466;-69
2024/02/16 10:35:58;;;;;;;10.03;4.20;;;15.70;99.90;;;;;;5012439;28;20455;-71
2024/02/16 10:38:26;;;;;;;5.87;4.50;;;15.60;99.90;;;;;;5012630;28;20420;-71
2024/02/16 10:40:53;;;;;;;8.03;4.90;;;15.70;99.90;;;;;;5018276;28;20501;-71
2024/02/16 10:43:20;;;;;;;7.67;4.93;;;15.80;99.90;;;;;;5011675;28;20443;-71
2024/02/16 10:45:49;;;;;;;11.50;4.70;;;15.90;99.90;;;;;;5015517;28;20525;-72
2024/02/16 10:48:15;;;;;;;6.50;4.60;;;15.90;99.90;;;;;;5013057;28;20444;-71
2024/02/16 10:50:41;;;;;;;7.70;4.97;;;16.10;99.90;;;;;;5010917;28;20519;-71
2024/02/16 10:53:21;;;;;;;4.80;3.90;;;16.20;99.90;;;;;;5010206;28;20482;-72
2024/02/16 10:55:46;;;;;;;5.40;3.80;;;16.30;99.90;;;;;;5015628;28;20407;-72
2024/02/16 10:58:12;;;;;;;7.10;4.33;;;16.40;99.90;;;;;;5008503;28;20803;-72
2024/02/16 11:00:54;;;;;;;4.33;3.57;;;16.60;99.90;;;;;;5019016;28;20199;-72
2024/02/16 11:03:27;;;;;;;12.50;4.23;;;16.70;99.90;;;;;;5015588;28;20470;-72
2024/02/16 11:05:54;;;;;;;7.60;4.07;;;16.80;99.90;;;;;;5017443;28;20439;-72
2024/02/16 11:08:26;;;;;;;5.90;4.03;;;16.90;99.90;;;;;;5015142;28;20439;-71
2024/02/16 11:11:03;;;;;;;4.47;3.60;;;17.20;99.90;;;;;;5020809;28;20497;-71
2024/02/16 11:13:33;;;;;;;6.40;3.43;;;17.40;99.90;;;;;;5017263;28;20502;-71
2024/02/16 11:16:02;;;;;;;6.30;3.63;;;17.60;99.90;;;;;;5022213;28;20954;-71
2024/02/16 11:18:29;;;;;;;4.67;3.60;;;17.60;99.90;;;;;;5013725;28;20416;-71
2024/02/16 11:21:09;;;;;;;6.93;3.50;;;17.80;99.90;;;;;;5018540;28;20418;-72
2024/02/16 11:23:36;;;;;;;4.33;3.43;;;18.00;99.90;;;;;;5017509;28;20497;-72
2024/02/16 11:26:03;;;;;;;5.77;3.20;;;18.10;99.90;;;;;;5015468;28;20503;-72
2024/02/16 11:28:31;;;;;;;5.27;3.43;;;18.30;99.90;;;;;;5019713;28;20521;-71
2024/02/16 11:30:57;;;;;;;5.63;4.53;;;18.40;99.90;;;;;;5018175;28;20453;-71
2024/02/16 11:33:22;;;;;;;5.10;3.47;;;18.60;99.90;;;;;;5014211;28;20946;-71
2024/02/16 11:35:59;;;;;;;7.83;4.10;;;18.60;99.90;;;;;;5013494;28;20246;-72
2024/02/16 11:38:26;;;;;;;8.13;3.87;;;18.50;99.90;;;;;;5014272;28;20657;-71
2024/02/16 11:40:58;;;;;;;6.30;3.70;;;18.60;99.90;;;;;;5016528;28;20700;-71
2024/02/16 11:43:25;;;;;;;7.47;3.87;;;18.50;99.90;;;;;;5011161;28;20455;-71
2024/02/16 11:45:51;;;;;;;6.97;3.60;;;18.50;99.90;;;;;;5018493;28;20441;-71
2024/02/16 11:48:23;;;;;;;5.50;3.70;;;18.60;99.90;;;;;;5014582;28;20434;-70
2024/02/16 11:50:58;;;;;;;6.33;3.60;;;18.60;99.90;;;;;;5037080;28;20431;-72
2024/02/16 11:53:23;;;;;;;6.63;3.93;;;18.70;99.90;;;;;;5014039;28;20464;-70
2024/02/16 11:55:50;;;;;;;6.73;3.50;;;18.90;99.90;;;;;;5011104;28;20763;-71
2024/02/16 11:58:19;;;;;;;5.50;4.10;;;19.00;99.90;;;;;;5014947;28;20196;-71
2024/02/16 12:00:48;;;;;;;6.93;3.80;;;18.90;99.90;;;;;;5021686;28;20439;-71
2024/02/16 12:03:24;;;;;;;12.50;4.93;;;18.90;99.90;;;;;;5014714;28;20420;-71
2024/02/16 12:05:55;;;;;;;7.07;3.73;;;19.00;99.90;;;;;;5014605;28;20416;-71
2024/02/16 12:08:21;;;;;;;5.80;3.70;;;19.10;99.90;;;;;;5013595;28;20459;-71
2024/02/16 12:10:51;;;;;;;6.83;3.87;;;19.20;99.90;;;;;;5011224;28;20432;-72
2024/02/16 12:13:20;;;;;;;6.83;3.70;;;19.20;99.90;;;;;;5020913;28;20465;-72
2024/02/16 12:15:50;;;;;;;5.87;3.50;;;18.90;99.90;;;;;;5025178;28;20545;-71
2024/02/16 12:18:29;;;;;;;4.77;3.43;;;18.80;99.90;;;;;;5016497;28;20446;-70
2024/02/16 12:21:05;;;;;;;6.50;3.30;;;18.60;99.90;;;;;;5017621;28;20795;-71
2024/02/16 12:23:32;;;;;;;5.20;3.40;;;18.60;99.90;;;;;;5016805;28;20431;-70
2024/02/16 12:26:01;;;;;;;5.53;3.93;;;18.50;99.90;;;;;;5026666;28;20407;-70
2024/02/16 12:28:29;;;;;;;6.87;3.37;;;18.60;99.90;;;;;;5015196;28;20430;-70
2024/02/16 12:30:55;;;;;;;6.10;3.80;;;18.60;99.90;;;;;;5013388;28;20418;-70
2024/02/16 12:33:22;;;;;;;7.10;3.57;;;18.80;99.90;;;;;;5005985;28;20467;-70
2024/02/16 12:35:47;;;;;;;7.20;3.30;;;18.90;99.90;;;;;;5013119;28;20445;-70
2024/02/16 12:38:13;;;;;;;7.10;3.47;;;18.80;99.90;;;;;;5014103;28;20421;-70
2024/02/16 12:40:39;;;;;;;5.50;2.93;;;18.70;99.90;;;;;;5014812;28;20177;-70
2024/02/16 12:43:04;;;;;;;5.13;3.10;;;18.70;99.90;;;;;;5012224;28;20185;-69